createdAt,value
2023-02-19T00:02:04.629Z,6.97
2023-02-19T00:04:33.151Z,6.91
2023-02-19T00:07:01.493Z,6.89
2023-02-19T00:09:29.988Z,6.93
2023-02-19T00:11:58.370Z,7.03
2023-02-19T00:14:28.208Z,6.92
2023-02-19T00:16:56.602Z,6.85
2023-02-19T00:19:25.058Z,6.85
2023-02-19T00:21:54.357Z,6.54
2023-02-19T00:24:23.137Z,6.90
2023-02-19T00:26:51.497Z,7.13
2023-02-19T00:29:22.265Z,6.87
2023-02-19T00:31:52.106Z,6.87
2023-02-19T00:34:20.446Z,6.82
2023-02-19T00:36:48.947Z,6.77
2023-02-19T00:39:18.868Z,6.89
2023-02-19T00:41:47.779Z,6.59
2023-02-19T00:44:16.679Z,6.81
2023-02-19T00:46:47.600Z,6.72
2023-02-19T00:49:20.032Z,6.71
2023-02-19T00:51:49.168Z,6.74
2023-02-19T00:54:18.676Z,6.69
2023-02-19T00:56:47.191Z,6.64
2023-02-19T00:59:15.864Z,6.53
2023-02-19T01:01:45.680Z,6.64
2023-02-19T01:04:14.322Z,6.65
2023-02-19T01:06:44.091Z,6.65
2023-02-19T01:09:12.416Z,6.68
2023-02-19T01:11:40.925Z,6.76
2023-02-19T01:14:10.777Z,6.67
2023-02-19T01:16:39.396Z,6.66
2023-02-19T01:19:07.711Z,6.57
2023-02-19T01:21:36.020Z,6.92
2023-02-19T01:24:06.111Z,6.80
2023-02-19T01:26:34.952Z,6.65
2023-02-19T01:29:03.574Z,6.67
2023-02-19T01:31:32.285Z,6.65
2023-02-19T01:34:02.106Z,6.70
2023-02-19T01:36:31.542Z,6.64
2023-02-19T01:39:03.914Z,6.74
2023-02-19T01:41:36.549Z,6.83
2023-02-19T01:44:08.312Z,6.63
2023-02-19T01:46:37.756Z,6.51
2023-02-19T01:49:09.658Z,6.94
2023-02-19T01:51:42.914Z,6.75
2023-02-19T01:54:14.853Z,6.75
2023-02-19T01:56:46.931Z,6.26
2023-02-19T01:59:16.213Z,6.50
2023-02-19T02:01:44.622Z,6.90
2023-02-19T02:04:16.126Z,6.49
2023-02-19T02:06:49.687Z,6.78
2023-02-19T02:09:37.301Z,6.56
2023-02-19T02:12:07.478Z,6.59
2023-02-19T02:14:39.012Z,6.71
2023-02-19T02:17:16.580Z,6.60
2023-02-19T02:20:03.323Z,6.75
2023-02-19T02:22:38.212Z,6.74
2023-02-19T02:25:40.182Z,6.71
2023-02-19T02:28:32.418Z,6.71
2023-02-19T02:31:07.878Z,6.37
2023-02-19T02:33:42.597Z,6.61
2023-02-19T02:36:16.460Z,6.61
2023-02-19T02:38:47.530Z,6.73
2023-02-19T02:41:17.405Z,6.66
2023-02-19T02:43:45.734Z,6.61
2023-02-19T02:46:21.540Z,6.68
2023-02-19T02:48:55.665Z,6.67
2023-02-19T02:51:29.070Z,6.42
2023-02-19T02:54:21.703Z,6.46
2023-02-19T02:56:51.711Z,6.53
2023-02-19T02:59:24.921Z,6.80
2023-02-19T03:02:14.659Z,6.63
2023-02-19T03:05:11.510Z,6.59
2023-02-19T03:07:44.754Z,6.64
2023-02-19T03:10:18.590Z,6.79
2023-02-19T03:13:04.985Z,6.76
2023-02-19T03:15:56.075Z,6.55
2023-02-19T03:18:46.891Z,6.41
2023-02-19T03:21:18.607Z,6.71
2023-02-19T03:24:11.927Z,6.74
2023-02-19T03:26:42.803Z,6.43
2023-02-19T03:29:26.242Z,6.52
2023-02-19T03:31:58.300Z,6.48
2023-02-19T03:34:30.844Z,6.62
2023-02-19T03:37:05.943Z,6.68
2023-02-19T03:39:44.418Z,6.55
2023-02-19T03:42:22.376Z,6.60
2023-02-19T03:45:12.769Z,6.51
2023-02-19T03:47:51.048Z,6.55
2023-02-19T03:50:25.432Z,6.54
2023-02-19T03:53:01.940Z,6.67
2023-02-19T03:55:38.352Z,6.75
2023-02-19T03:58:11.139Z,6.72
2023-02-19T04:00:45.153Z,6.67
2023-02-19T04:03:19.990Z,6.63
2023-02-19T04:05:54.965Z,6.54
2023-02-19T04:08:25.699Z,6.71
2023-02-19T04:10:56.130Z,6.71
2023-02-19T04:13:27.896Z,6.57
2023-02-19T04:16:02.061Z,6.72
2023-02-19T04:18:35.204Z,6.68
2023-02-19T04:21:07.171Z,6.70
2023-02-19T04:23:39.789Z,6.82
2023-02-19T04:26:09.346Z,6.79
2023-02-19T04:28:38.980Z,6.76
2023-02-19T04:31:07.692Z,6.63
2023-02-19T04:33:36.313Z,6.77
2023-02-19T04:36:06.693Z,6.54
2023-02-19T04:38:35.059Z,6.60
2023-02-19T04:41:03.758Z,6.50
2023-02-19T04:43:32.120Z,6.82
2023-02-19T04:46:02.708Z,6.62
2023-02-19T04:48:31.321Z,6.53
2023-02-19T04:50:59.613Z,6.60
2023-02-19T04:53:29.395Z,6.52
2023-02-19T04:55:57.710Z,6.58
2023-02-19T04:58:25.978Z,6.63
2023-02-19T05:00:54.968Z,6.49
2023-02-19T05:03:23.392Z,6.53
2023-02-19T05:05:51.693Z,6.67
2023-02-19T05:08:20.092Z,6.79
2023-02-19T05:10:50.228Z,6.50
2023-02-19T05:13:18.581Z,6.58
2023-02-19T05:15:56.562Z,6.61
2023-02-19T05:18:25.039Z,6.55
2023-02-19T05:20:53.650Z,6.64
2023-02-19T05:23:23.088Z,6.42
2023-02-19T05:25:52.994Z,6.28
2023-02-19T05:28:28.712Z,6.56
2023-02-19T05:30:58.372Z,6.59
2023-02-19T05:33:27.827Z,6.67
2023-02-19T05:35:57.278Z,6.95
2023-02-19T05:38:26.439Z,6.80
2023-02-19T05:40:56.148Z,6.67
2023-02-19T05:43:24.481Z,6.72
2023-02-19T05:45:53.127Z,6.63
2023-02-19T05:48:21.379Z,6.54
2023-02-19T05:50:49.720Z,6.55
2023-02-19T05:53:18.310Z,6.70
2023-02-19T05:55:46.703Z,6.59
2023-02-19T05:58:16.369Z,6.64
2023-02-19T06:00:44.702Z,6.62
2023-02-19T06:03:13.056Z,6.47
2023-02-19T06:05:41.486Z,6.57
2023-02-19T06:08:09.761Z,6.59
2023-02-19T06:10:41.176Z,6.61
2023-02-19T06:13:10.130Z,6.40
2023-02-19T06:15:40.031Z,6.52
2023-02-19T06:18:08.383Z,6.36
2023-02-19T06:20:36.698Z,6.41
2023-02-19T06:23:05.091Z,6.31
2023-02-19T06:25:33.444Z,6.37
2023-02-19T06:28:01.752Z,6.27
2023-02-19T06:30:30.421Z,6.22
2023-02-19T06:33:00.180Z,6.27
2023-02-19T06:35:28.499Z,6.40
2023-02-19T06:37:56.832Z,6.31
2023-02-19T06:40:25.242Z,6.34
2023-02-19T06:42:53.595Z,6.38
2023-02-19T06:45:21.922Z,5.94
2023-02-19T06:47:50.304Z,6.21
2023-02-19T06:50:20.284Z,6.39
2023-02-19T06:52:48.640Z,6.01
2023-02-19T06:55:17.094Z,6.18
2023-02-19T06:57:45.461Z,6.19
2023-02-19T07:00:14.489Z,6.26
2023-02-19T07:02:42.938Z,6.25
2023-02-19T07:05:11.196Z,5.94
2023-02-19T07:07:40.999Z,6.30
2023-02-19T07:10:09.623Z,6.29
2023-02-19T07:12:38.169Z,6.39
2023-02-19T07:15:07.017Z,6.41
2023-02-19T07:17:35.675Z,6.39
2023-02-19T07:20:04.085Z,6.41
2023-02-19T07:22:32.491Z,6.38
2023-02-19T07:25:02.220Z,6.13
2023-02-19T07:27:30.520Z,6.15
2023-02-19T07:29:59.316Z,6.41
2023-02-19T07:32:27.719Z,6.49
2023-02-19T07:34:56.144Z,6.53
2023-02-19T07:37:24.464Z,6.64
2023-02-19T07:39:52.710Z,6.63
2023-02-19T07:42:22.845Z,6.49
2023-02-19T07:44:51.088Z,6.57
2023-02-19T07:47:19.383Z,6.72
2023-02-19T07:49:47.699Z,6.57
2023-02-19T07:52:16.132Z,6.49
2023-02-19T07:54:44.455Z,6.73
2023-02-19T07:57:13.024Z,6.60
2023-02-19T07:59:43.971Z,6.52
2023-02-19T08:02:35.156Z,6.59
2023-02-19T08:05:03.878Z,6.27
2023-02-19T08:07:39.708Z,6.39
2023-02-19T08:10:26.119Z,6.12
2023-02-19T08:13:15.895Z,6.50
2023-02-19T08:15:45.846Z,6.19
2023-02-19T08:18:15.501Z,6.56
2023-02-19T08:20:44.203Z,6.59
2023-02-19T08:23:13.169Z,6.47
2023-02-19T08:25:42.701Z,6.62
2023-02-19T08:28:12.898Z,6.71
2023-02-19T08:30:44.699Z,6.77
2023-02-19T08:33:16.620Z,6.84
2023-02-19T08:35:45.806Z,7.08
2023-02-19T08:38:17.252Z,7.05
2023-02-19T08:40:46.077Z,6.96
2023-02-19T08:43:16.342Z,6.33
2023-02-19T08:45:47.502Z,6.90
2023-02-19T08:48:17.297Z,7.02
2023-02-19T08:50:45.632Z,6.98
2023-02-19T08:53:14.245Z,6.95
2023-02-19T08:55:42.615Z,7.12
2023-02-19T08:58:12.542Z,7.10
2023-02-19T09:00:41.395Z,7.10
2023-02-19T09:03:10.193Z,7.10
2023-02-19T09:05:41.633Z,7.11
2023-02-19T09:08:10.662Z,6.58
2023-02-19T09:10:39.441Z,7.13
2023-02-19T09:13:08.228Z,7.10
2023-02-19T09:15:38.573Z,7.10
2023-02-19T09:18:07.041Z,7.16
2023-02-19T09:20:35.460Z,7.17
2023-02-19T09:23:05.208Z,7.14
2023-02-19T09:25:34.007Z,7.24
2023-02-19T09:28:02.416Z,7.19
2023-02-19T09:30:30.927Z,7.13
2023-02-19T09:32:59.223Z,7.02
2023-02-19T09:35:27.698Z,7.20
2023-02-19T09:37:56.058Z,7.04
2023-02-19T09:40:25.847Z,7.15
2023-02-19T09:42:54.203Z,7.21
2023-02-19T09:45:25.378Z,7.23
2023-02-19T09:47:57.647Z,7.37
2023-02-19T09:50:34.517Z,7.02
2023-02-19T09:53:06.058Z,7.27
2023-02-19T09:55:38.128Z,6.65
2023-02-19T09:58:16.727Z,7.45
2023-02-19T10:00:49.305Z,7.21
2023-02-19T10:03:25.729Z,7.37
2023-02-19T10:05:56.573Z,7.25
2023-02-19T10:08:24.868Z,7.20
2023-02-19T10:10:56.169Z,7.06
2023-02-19T10:13:30.858Z,7.18
2023-02-19T10:16:02.275Z,7.10
2023-02-19T10:18:37.885Z,6.94
2023-02-19T10:21:09.542Z,7.14
2023-02-19T10:23:38.186Z,7.11
2023-02-19T10:26:08.960Z,7.01
2023-02-19T10:28:37.796Z,7.25
2023-02-19T10:31:13.178Z,7.35
2023-02-19T10:33:51.873Z,7.29
2023-02-19T10:36:31.287Z,7.18
2023-02-19T10:39:01.786Z,7.18
2023-02-19T10:41:33.190Z,7.19
2023-02-19T10:44:07.904Z,7.19
2023-02-19T10:46:39.056Z,7.35
2023-02-19T10:49:25.596Z,7.39
2023-02-19T10:51:54.889Z,7.09
2023-02-19T10:54:28.845Z,7.20
2023-02-19T10:57:25.808Z,7.28
2023-02-19T10:59:58.303Z,7.03
2023-02-19T11:02:27.595Z,6.47
2023-02-19T11:05:18.611Z,6.81
2023-02-19T11:07:50.750Z,6.71
2023-02-19T11:10:29.055Z,6.59
2023-02-19T11:13:01.646Z,6.54
2023-02-19T11:15:32.721Z,6.47
2023-02-19T11:18:06.185Z,6.10
2023-02-19T11:20:35.071Z,6.29
2023-02-19T11:23:14.534Z,6.17
2023-02-19T11:25:47.899Z,6.02
2023-02-19T11:28:32.724Z,5.91
2023-02-19T11:31:25.037Z,5.93
2023-02-19T11:33:58.751Z,5.80
2023-02-19T11:36:30.697Z,5.81
2023-02-19T11:39:02.676Z,5.56
2023-02-19T11:42:01.295Z,5.64
2023-02-19T11:44:41.288Z,5.36
2023-02-19T11:47:34.227Z,5.28
2023-02-19T11:50:11.428Z,5.43
2023-02-19T11:52:48.040Z,5.63
2023-02-19T11:55:25.227Z,5.43
2023-02-19T11:58:05.467Z,5.68
2023-02-19T12:00:43.124Z,5.64
2023-02-19T12:03:58.753Z,5.71
2023-02-19T12:06:39.133Z,5.72
2023-02-19T12:09:39.803Z,5.85
2023-02-19T12:12:32.021Z,5.47
2023-02-19T12:15:20.477Z,5.88
2023-02-19T12:18:08.372Z,6.12
2023-02-19T12:20:46.123Z,6.22
2023-02-19T12:23:37.983Z,6.28
2023-02-19T12:26:16.317Z,4.57
2023-02-19T12:29:01.866Z,6.28
2023-02-19T12:32:00.363Z,6.37
2023-02-19T12:34:52.194Z,6.59
2023-02-19T12:37:34.858Z,6.13
2023-02-19T12:40:27.547Z,6.40
2023-02-19T12:43:10.185Z,6.32
2023-02-19T12:45:44.418Z,6.34
2023-02-19T12:48:20.091Z,6.32
2023-02-19T12:50:57.029Z,6.17
2023-02-19T12:53:37.366Z,6.36
2023-02-19T12:56:10.929Z,6.38
2023-02-19T12:58:41.023Z,6.32
2023-02-19T13:01:15.515Z,6.37
2023-02-19T13:03:52.487Z,6.34
2023-02-19T13:06:36.565Z,6.35
2023-02-19T13:09:13.343Z,6.21
2023-02-19T13:11:45.887Z,5.98
2023-02-19T13:14:23.251Z,5.82
2023-02-19T13:16:57.901Z,6.11
2023-02-19T13:19:26.308Z,6.18
2023-02-19T13:22:20.992Z,6.09
2023-02-19T13:24:50.957Z,6.03
2023-02-19T13:30:41.673Z,6.09
2023-02-19T13:33:28.035Z,6.01
2023-02-19T13:36:15.313Z,5.86
2023-02-19T13:38:48.370Z,5.91
2023-02-19T13:41:30.227Z,5.88
2023-02-19T13:44:02.617Z,5.63
2023-02-19T13:46:41.068Z,5.84
2023-02-19T13:49:45.772Z,5.82
2023-02-19T13:52:38.661Z,5.81
2023-02-19T13:55:44.358Z,5.84
2023-02-19T13:58:40.434Z,5.85
2023-02-19T14:01:10.829Z,5.84
2023-02-19T14:03:50.865Z,5.82
2023-02-19T14:06:19.403Z,5.86
2023-02-19T14:08:50.720Z,5.83
2023-02-19T14:11:41.252Z,5.82
2023-02-19T14:14:36.026Z,5.82
2023-02-19T14:17:26.112Z,5.89
2023-02-19T14:19:58.407Z,5.95
2023-02-19T14:22:49.992Z,5.95
2023-02-19T14:25:38.445Z,5.97
2023-02-19T14:28:18.518Z,6.00
2023-02-19T14:30:52.348Z,6.02
2023-02-19T14:33:25.070Z,5.94
2023-02-19T14:35:58.637Z,6.13
2023-02-19T14:38:30.382Z,6.12
2023-02-19T14:40:59.776Z,6.15
2023-02-19T14:43:30.048Z,6.10
2023-02-19T14:46:02.660Z,5.89
2023-02-19T14:48:34.928Z,6.05
2023-02-19T14:51:08.707Z,6.02
2023-02-19T14:53:41.226Z,6.04
2023-02-19T14:56:21.406Z,6.02
2023-02-19T14:59:07.851Z,5.72
2023-02-19T15:01:37.672Z,5.96
2023-02-19T15:04:06.437Z,5.87
2023-02-19T15:06:36.749Z,5.78
2023-02-19T15:09:08.097Z,5.81
2023-02-19T15:11:37.093Z,5.83
2023-02-19T15:14:08.271Z,5.84
2023-02-19T15:16:39.037Z,5.42
2023-02-19T15:19:10.890Z,5.83
2023-02-19T15:21:41.518Z,5.82
2023-02-19T15:24:10.042Z,5.20
2023-02-19T15:26:40.638Z,5.79
2023-02-19T15:29:13.239Z,5.69
2023-02-19T15:31:48.818Z,5.77
2023-02-19T15:34:20.474Z,5.77
2023-02-19T15:36:51.876Z,5.81
2023-02-19T15:39:25.888Z,5.80
2023-02-19T15:42:00.065Z,5.47
2023-02-19T15:44:45.069Z,5.78
2023-02-19T15:47:22.147Z,5.77
2023-02-19T15:49:57.289Z,5.77
2023-02-19T15:52:38.007Z,5.78
2023-02-19T15:55:17.773Z,5.70
2023-02-19T15:57:51.393Z,5.70
2023-02-19T16:00:22.778Z,5.69
2023-02-19T16:02:53.295Z,5.70
2023-02-19T16:05:27.993Z,5.72
2023-02-19T16:08:18.350Z,5.77
2023-02-19T16:10:58.509Z,5.79
2023-02-19T16:13:28.312Z,5.52
2023-02-19T16:16:05.337Z,5.66
2023-02-19T16:18:36.663Z,5.17
2023-02-19T16:21:10.370Z,5.60
2023-02-19T16:23:43.611Z,5.62
2023-02-19T16:26:12.411Z,5.55
2023-02-19T16:28:43.103Z,5.40
2023-02-19T16:31:14.187Z,5.53
2023-02-19T16:33:46.920Z,5.52
2023-02-19T16:36:26.617Z,5.55
2023-02-19T16:39:18.898Z,5.57
2023-02-19T16:42:17.399Z,5.61
2023-02-19T16:44:47.035Z,5.66
2023-02-19T16:47:34.346Z,5.70
2023-02-19T16:50:12.904Z,5.73
2023-02-19T16:52:52.556Z,5.75
2023-02-19T16:55:21.821Z,5.71
2023-02-19T16:57:51.110Z,5.72
2023-02-19T17:00:21.743Z,5.75
2023-02-19T17:02:52.638Z,5.74
2023-02-19T17:05:24.548Z,5.72
2023-02-19T17:07:52.923Z,5.54
2023-02-19T17:10:23.740Z,5.65
2023-02-19T17:12:52.496Z,5.29
2023-02-19T17:15:20.966Z,5.52
2023-02-19T17:17:49.630Z,5.63
2023-02-19T17:20:27.738Z,5.49
2023-02-19T17:22:56.138Z,5.53
2023-02-19T17:25:25.387Z,5.58
2023-02-19T17:27:53.914Z,5.52
2023-02-19T17:30:28.197Z,5.61
2023-02-19T17:32:56.610Z,5.66
2023-02-19T17:35:27.008Z,5.64
2023-02-19T17:37:55.861Z,5.63
2023-02-19T17:40:33.177Z,5.65
2023-02-19T17:43:02.488Z,5.48
2023-02-19T17:45:31.197Z,5.56
2023-02-19T17:48:00.218Z,5.55
2023-02-19T17:50:31.947Z,5.58
2023-02-19T17:53:01.049Z,5.04
2023-02-19T17:55:29.394Z,5.56
2023-02-19T17:57:58.193Z,5.02
2023-02-19T18:00:28.542Z,5.62
2023-02-19T18:02:57.556Z,5.63
2023-02-19T18:05:26.395Z,5.67
2023-02-19T18:07:56.569Z,5.53
2023-02-19T18:10:25.495Z,5.55
2023-02-19T18:12:54.148Z,5.34
2023-02-19T18:15:24.618Z,5.73
2023-02-19T18:17:53.243Z,5.71
2023-02-19T18:20:24.490Z,5.63
2023-02-19T18:22:53.015Z,5.51
2023-02-19T18:25:23.788Z,5.63
2023-02-19T18:27:52.770Z,5.08
2023-02-19T18:30:23.233Z,5.64
2023-02-19T18:32:52.926Z,5.68
2023-02-19T18:35:22.483Z,5.70
2023-02-19T18:37:52.951Z,5.65
2023-02-19T18:40:25.434Z,5.64
2023-02-19T18:42:54.331Z,5.72
2023-02-19T18:45:22.844Z,5.74
2023-02-19T18:47:52.062Z,5.52
2023-02-19T18:50:21.120Z,4.70
2023-02-19T18:52:49.669Z,5.72
2023-02-19T18:55:18.303Z,5.71
2023-02-19T18:57:49.368Z,5.50
2023-02-19T19:00:19.413Z,5.33
2023-02-19T19:02:50.797Z,5.68
2023-02-19T19:05:23.319Z,5.71
2023-02-19T19:07:52.901Z,5.70
2023-02-19T19:10:21.786Z,5.76
2023-02-19T19:12:52.380Z,5.56
2023-02-19T19:15:21.054Z,5.73
2023-02-19T19:17:49.717Z,5.71
2023-02-19T19:20:20.016Z,5.63
2023-02-19T19:22:50.862Z,5.71
2023-02-19T19:25:20.348Z,5.75
2023-02-19T19:27:50.723Z,5.76
2023-02-19T19:30:21.266Z,5.56
2023-02-19T19:32:51.448Z,5.78
2023-02-19T19:35:21.819Z,5.71
2023-02-19T19:37:50.252Z,5.79
2023-02-19T19:40:19.649Z,5.66
2023-02-19T19:42:49.084Z,5.76
2023-02-19T19:45:17.731Z,5.83
2023-02-19T19:47:48.976Z,5.72
2023-02-19T19:50:18.807Z,5.48
2023-02-19T19:52:47.686Z,5.80
2023-02-19T19:55:16.301Z,5.76
2023-02-19T19:57:44.878Z,5.70
2023-02-19T20:00:19.780Z,5.70
2023-02-19T20:02:50.332Z,5.66
2023-02-19T20:05:19.251Z,5.19
2023-02-19T20:07:47.914Z,5.62
2023-02-19T20:10:20.024Z,5.60
2023-02-19T20:12:49.157Z,5.61
2023-02-19T20:15:23.142Z,5.61
2023-02-19T20:17:53.258Z,5.33
2023-02-19T20:20:22.990Z,5.31
2023-02-19T20:22:52.039Z,5.55
2023-02-19T20:25:20.543Z,5.56
2023-02-19T20:27:50.126Z,5.55
2023-02-19T20:30:19.757Z,4.95
2023-02-19T20:32:48.458Z,5.55
2023-02-19T20:35:19.168Z,5.55
2023-02-19T20:37:49.523Z,5.65
2023-02-19T20:40:20.423Z,5.46
2023-02-19T20:42:49.049Z,5.40
2023-02-19T20:45:17.938Z,5.29
2023-02-19T20:47:46.434Z,5.45
2023-02-19T20:50:14.758Z,5.23
2023-02-19T20:52:44.737Z,5.47
2023-02-19T20:55:14.153Z,5.39
2023-02-19T20:57:42.634Z,5.45
2023-02-19T21:00:12.431Z,5.47
2023-02-19T21:02:42.970Z,5.37
2023-02-19T21:05:11.950Z,5.46
2023-02-19T21:07:40.508Z,4.80
2023-02-19T21:10:11.891Z,5.35
2023-02-19T21:12:40.928Z,5.40
2023-02-19T21:15:10.225Z,5.00
2023-02-19T21:17:39.323Z,5.54
2023-02-19T21:20:09.309Z,5.31
2023-02-19T21:22:38.278Z,5.42
2023-02-19T21:25:07.744Z,5.68
2023-02-19T21:27:38.000Z,5.72
2023-02-19T21:30:08.530Z,5.56
2023-02-19T21:32:38.545Z,5.67
2023-02-19T21:35:08.609Z,5.63
2023-02-19T21:37:38.604Z,5.61
2023-02-19T21:40:08.935Z,5.47
2023-02-19T21:42:39.356Z,5.44
2023-02-19T21:45:11.068Z,5.62
2023-02-19T21:47:39.620Z,5.69
2023-02-19T21:50:09.452Z,5.68
2023-02-19T21:52:38.006Z,5.24
2023-02-19T21:55:07.726Z,5.60
2023-02-19T21:57:36.546Z,5.54
2023-02-19T22:00:09.000Z,5.49
2023-02-19T22:02:38.874Z,5.60
2023-02-19T22:05:08.187Z,5.62
2023-02-19T22:07:36.447Z,5.64
2023-02-19T22:10:05.340Z,5.70
2023-02-19T22:12:33.607Z,5.65
2023-02-19T22:15:04.040Z,5.43
2023-02-19T22:17:33.849Z,5.61
2023-02-19T22:20:03.254Z,5.54
2023-02-19T22:22:32.678Z,5.45
2023-02-19T22:25:01.197Z,5.17
2023-02-19T22:27:30.241Z,5.72
2023-02-19T22:29:58.604Z,5.60
2023-02-19T22:32:27.072Z,5.28
2023-02-19T22:34:56.866Z,5.67
2023-02-19T22:37:27.018Z,5.89
2023-02-19T22:39:55.555Z,5.65
2023-02-19T22:42:24.530Z,5.64
2023-02-19T22:44:52.967Z,5.61
2023-02-19T22:47:21.318Z,5.49
2023-02-19T22:49:49.730Z,5.51
2023-02-19T22:52:19.909Z,5.74
2023-02-19T22:54:48.246Z,5.60
2023-02-19T22:57:16.643Z,5.59
2023-02-19T22:59:44.912Z,5.56
2023-02-19T23:02:13.849Z,5.58
2023-02-19T23:04:42.149Z,5.56
2023-02-19T23:07:10.511Z,5.39
2023-02-19T23:09:40.593Z,5.42
2023-02-19T23:12:11.357Z,5.52
2023-02-19T23:14:39.749Z,5.41
2023-02-19T23:17:08.433Z,5.44
2023-02-19T23:19:37.980Z,5.51
2023-02-19T23:22:06.679Z,5.01
2023-02-19T23:24:35.301Z,5.41
2023-02-19T23:27:05.500Z,5.45
2023-02-19T23:29:33.856Z,5.49
2023-02-19T23:32:02.307Z,5.51
2023-02-19T23:34:30.715Z,5.30
2023-02-19T23:36:59.724Z,5.24
2023-02-19T23:39:28.182Z,5.09
2023-02-19T23:41:58.726Z,5.10
2023-02-19T23:44:28.562Z,4.87
2023-02-19T23:46:56.952Z,5.25
2023-02-19T23:49:25.450Z,5.15
2023-02-19T23:51:53.836Z,5.05
2023-02-19T23:54:22.122Z,5.14
2023-02-19T23:56:50.527Z,5.07
2023-02-19T23:59:18.804Z,4.99
